Time;durP1;ratioP1;P1;durP2;ratioP2;P2;SDS_P1;SDS_P2;PMS_P1;PMS_P2;Temp;Humidity;BMP_temperature;BMP_pressure;BME280_temperature;BME280_humidity;BME280_pressure;Samples;Min_cycle;Max_cycle;Signal;HPM_P1;HPM_P2
2022/02/24 00:01:32;;;;;;;;;;;8.60;99.90;;;;;;5054358;28;19913;-66
2022/02/24 00:03:58;;;;;;;;;;;8.60;99.90;;;;;;5053647;28;20354;-69
2022/02/24 00:06:24;;;;;;;;;;;8.70;99.90;;;;;;5054172;28;20327;-72
2022/02/24 00:08:49;;;;;;;;;;;8.50;99.90;;;;;;5040268;28;20373;-66
2022/02/24 00:11:15;;;;;;;;;;;8.50;99.90;;;;;;5036447;28;19999;-66
2022/02/24 00:13:40;;;;;;;;;;;8.40;99.90;;;;;;5034244;28;19905;-67
2022/02/24 00:16:06;;;;;;;;;;;8.40;99.90;;;;;;5036607;28;19949;-66
2022/02/24 00:18:32;;;;;;;;;;;8.40;99.90;;;;;;5050910;28;19917;-68
2022/02/24 00:20:57;;;;;;;;;;;8.40;99.90;;;;;;5058696;28;19955;-65
2022/02/24 00:23:23;;;;;;;;;;;8.30;99.90;;;;;;5041293;28;19908;-66
2022/02/24 00:25:48;;;;;;;;;;;8.30;99.90;;;;;;5056317;28;19909;-65
2022/02/24 00:28:14;;;;;;;;;;;8.20;99.90;;;;;;5038048;28;19911;-64
2022/02/24 00:30:39;;;;;;;;;;;8.30;99.90;;;;;;5037352;28;20002;-67
2022/02/24 00:33:05;;;;;;;;;;;8.30;99.90;;;;;;5037472;28;19920;-65
2022/02/24 00:35:30;;;;;;;;;;;8.30;99.90;;;;;;5055271;28;19905;-65
2022/02/24 00:37:56;;;;;;;;;;;8.20;99.90;;;;;;5037474;28;19908;-65
2022/02/24 00:40:21;;;;;;;;;;;8.20;99.90;;;;;;5037696;28;20316;-67
2022/02/24 00:42:47;;;;;;;;;;;8.30;99.90;;;;;;5036878;28;19909;-66
2022/02/24 00:45:12;;;;;;;;;;;8.30;99.90;;;;;;5055258;28;19925;-67
2022/02/24 00:47:38;;;;;;;;;;;8.30;99.90;;;;;;5036992;28;20273;-71
2022/02/24 00:50:04;;;;;;;;;;;8.20;99.90;;;;;;5055469;28;19911;-66
2022/02/24 00:52:29;;;;;;;;;;;8.20;99.90;;;;;;5037561;28;20007;-69
2022/02/24 00:54:55;;;;;;;;;;;8.20;99.90;;;;;;5054926;28;20277;-65
2022/02/24 00:57:20;;;;;;;;;;;8.20;99.90;;;;;;5055245;28;20273;-66
2022/02/24 00:59:46;;;;;;;;;;;8.20;99.90;;;;;;5032295;28;19905;-64
2022/02/24 01:02:11;;;;;;;;;;;8.20;99.90;;;;;;5033064;28;19967;-66
2022/02/24 01:04:37;;;;;;;;;;;8.10;99.90;;;;;;5032758;28;19935;-65
2022/02/24 01:07:03;;;;;;;;;;;8.10;99.90;;;;;;5032194;28;20641;-65
2022/02/24 01:09:28;;;;;;;;;;;8.20;99.90;;;;;;5032983;28;19905;-67
2022/02/24 01:11:54;;;;;;;;;;;8.20;99.90;;;;;;5015861;28;19905;-66
2022/02/24 01:14:19;;;;;;;;;;;8.20;99.90;;;;;;5032862;28;20351;-65
2022/02/24 01:16:45;;;;;;;;;;;8.30;99.90;;;;;;5032252;28;19955;-65
2022/02/24 01:19:10;;;;;;;;;;;8.30;99.90;;;;;;5032611;28;19917;-65
2022/02/24 01:21:37;;;;;;;;;;;8.20;99.90;;;;;;5032628;28;19921;-67
2022/02/24 01:24:02;;;;;;;;;;;8.20;99.90;;;;;;5032348;28;20004;-66
2022/02/24 01:26:28;;;;;;;;;;;8.20;99.90;;;;;;5032948;28;19909;-65
2022/02/24 01:28:54;;;;;;;;;;;8.30;99.90;;;;;;5031657;28;19909;-66
2022/02/24 01:31:19;;;;;;;;;;;8.10;99.90;;;;;;5047816;28;19904;-65
2022/02/24 01:33:45;;;;;;;;;;;7.90;99.90;;;;;;5053950;28;19931;-64
2022/02/24 01:36:10;;;;;;;;;;;8.00;99.90;;;;;;5036820;28;19995;-66
2022/02/24 01:38:36;;;;;;;;;;;8.10;99.90;;;;;;5054650;28;20419;-65
2022/02/24 01:41:02;;;;;;;;;;;8.10;99.90;;;;;;5036392;28;19915;-65
2022/02/24 01:43:27;;;;;;;;;;;8.10;99.90;;;;;;5036963;28;19913;-65
2022/02/24 01:45:53;;;;;;;;;;;8.10;99.90;;;;;;5037369;28;19916;-65
2022/02/24 01:48:18;;;;;;;;;;;8.10;99.90;;;;;;5038221;28;19916;-67
2022/02/24 01:50:44;;;;;;;;;;;7.90;99.90;;;;;;5038213;28;19972;-66
2022/02/24 01:53:10;;;;;;;;;;;8.00;99.90;;;;;;5053947;28;19908;-67
2022/02/24 01:55:35;;;;;;;;;;;7.90;99.90;;;;;;5055489;28;19912;-65
2022/02/24 01:58:04;;;;;;;;;;;7.90;99.90;;;;;;5037929;28;19904;-65
2022/02/24 02:00:31;;;;;;;;;;;7.90;99.90;;;;;;5055474;28;20003;-65
2022/02/24 02:03:07;;;;;;;;;;;7.90;99.90;;;;;;5037882;28;19904;-68
2022/02/24 02:05:37;;;;;;;;;;;7.90;99.90;;;;;;5037396;28;19912;-69
2022/02/24 02:08:04;;;;;;;;;;;7.80;99.90;;;;;;5054372;28;19997;-66
2022/02/24 02:10:38;;;;;;;;;;;8.00;99.90;;;;;;5055211;28;19905;-67
2022/02/24 02:13:06;;;;;;;;;;;7.90;99.90;;;;;;5054445;28;19917;-65
2022/02/24 02:15:36;;;;;;;;;;;7.70;99.90;;;;;;5036700;28;19908;-66
2022/02/24 02:18:02;;;;;;;;;;;7.60;99.90;;;;;;5055478;28;19916;-65
2022/02/24 02:20:37;;;;;;;;;;;7.60;99.90;;;;;;5055417;28;20389;-65
2022/02/24 02:23:11;;;;;;;;;;;7.70;99.90;;;;;;5054301;28;19911;-65
2022/02/24 02:25:46;;;;;;;;;;;7.70;99.90;;;;;;5054253;28;19952;-65
2022/02/24 02:28:26;;;;;;;;;;;7.80;99.90;;;;;;5054496;28;19963;-65
2022/02/24 02:31:01;;;;;;;;;;;7.90;99.90;;;;;;5035004;28;19915;-65
2022/02/24 02:33:27;;;;;;;;;;;7.90;99.90;;;;;;5037058;28;20003;-66
2022/02/24 02:35:54;;;;;;;;;;;8.00;99.90;;;;;;5036190;28;19994;-65
2022/02/24 02:38:20;;;;;;;;;;;7.90;99.90;;;;;;5054484;28;19905;-67
2022/02/24 02:40:46;;;;;;;;;;;7.90;99.90;;;;;;5036714;28;19983;-71
2022/02/24 02:43:12;;;;;;;;;;;8.00;99.90;;;;;;5037163;28;19908;-68
2022/02/24 02:45:38;;;;;;;;;;;8.10;99.90;;;;;;5053809;28;19923;-66
2022/02/24 02:48:05;;;;;;;;;;;8.10;99.90;;;;;;5053513;28;19915;-66
2022/02/24 02:50:32;;;;;;;;;;;8.10;99.90;;;;;;5054953;28;19908;-67
2022/02/24 02:53:02;;;;;;;;;;;8.10;99.90;;;;;;5054403;28;19905;-67
2022/02/24 02:55:28;;;;;;;;;;;8.10;99.90;;;;;;5057076;28;19939;-69
2022/02/24 02:57:54;;;;;;;;;;;8.10;99.90;;;;;;5023132;28;20265;-66
2022/02/24 03:00:20;;;;;;;;;;;8.20;99.90;;;;;;5060421;28;19928;-66
2022/02/24 03:02:47;;;;;;;;;;;8.30;99.90;;;;;;5057597;28;19911;-70
2022/02/24 03:05:14;;;;;;;;;;;8.30;99.90;;;;;;5040456;28;20007;-66
2022/02/24 03:07:46;;;;;;;;;;;8.30;99.90;;;;;;5057814;28;19999;-66
2022/02/24 03:10:23;;;;;;;;;;;8.30;99.90;;;;;;5038794;28;19935;-66
2022/02/24 03:12:51;;;;;;;;;;;8.30;99.90;;;;;;5039668;28;19912;-68
2022/02/24 03:15:26;;;;;;;;;;;8.40;99.90;;;;;;5058072;28;19915;-65
2022/02/24 03:17:53;;;;;;;;;;;8.30;99.90;;;;;;5057034;28;19917;-65
2022/02/24 03:20:20;;;;;;;;;;;8.30;99.90;;;;;;5058494;28;19951;-67
2022/02/24 03:22:48;;;;;;;;;;;8.30;99.90;;;;;;5041212;28;20408;-67
2022/02/24 03:25:18;;;;;;;;;;;8.20;99.90;;;;;;5041192;28;19935;-66
2022/02/24 03:27:44;;;;;;;;;;;8.20;99.90;;;;;;5059873;28;19908;-66
2022/02/24 03:30:15;;;;;;;;;;;8.30;99.90;;;;;;5059360;28;19909;-65
2022/02/24 03:32:43;;;;;;;;;;;8.30;99.90;;;;;;5059064;28;19908;-73
2022/02/24 03:35:10;;;;;;;;;;;8.40;99.90;;;;;;5059629;28;19951;-66
2022/02/24 03:37:36;;;;;;;;;;;8.40;99.90;;;;;;5060547;28;19905;-66
2022/02/24 03:40:05;;;;;;;;;;;8.40;99.90;;;;;;5060213;28;19905;-68
2022/02/24 03:42:32;;;;;;;;;;;8.30;99.90;;;;;;5060862;28;19913;-66
2022/02/24 03:44:58;;;;;;;;;;;8.30;99.90;;;;;;5041586;28;19909;-67
2022/02/24 03:47:26;;;;;;;;;;;8.30;99.90;;;;;;5042243;28;19966;-65
2022/02/24 03:49:56;;;;;;;;;;;8.40;99.90;;;;;;5059375;28;20004;-67
2022/02/24 03:52:23;;;;;;;;;;;8.40;99.90;;;;;;5060397;28;19905;-68
2022/02/24 03:54:52;;;;;;;;;;;8.30;99.90;;;;;;5059923;28;19904;-68
2022/02/24 03:57:22;;;;;;;;;;;8.20;99.90;;;;;;5060228;28;19988;-67
2022/02/24 04:00:02;;;;;;;;;;;8.30;99.90;;;;;;5059232;28;19961;-68
2022/02/24 04:02:40;;;;;;;;;;;8.20;99.90;;;;;;5041452;28;20254;-67
2022/02/24 04:05:11;;;;;;;;;;;8.30;99.90;;;;;;5057687;28;20023;-65
2022/02/24 04:07:39;;;;;;;;;;;8.30;99.90;;;;;;5057960;28;19915;-65
2022/02/24 04:10:06;;;;;;;;;;;8.30;99.90;;;;;;5038776;28;19909;-71
2022/02/24 04:12:33;;;;;;;;;;;8.20;99.90;;;;;;5058184;28;19915;-69
2022/02/24 04:14:59;;;;;;;;;;;8.20;99.90;;;;;;5040154;28;19916;-70
2022/02/24 04:17:25;;;;;;;;;;;8.10;99.90;;;;;;5041464;28;19917;-71
2022/02/24 04:19:52;;;;;;;;;;;8.20;99.90;;;;;;5058720;28;19959;-68
2022/02/24 04:22:18;;;;;;;;;;;8.10;99.90;;;;;;5058483;28;20350;-66
2022/02/24 04:24:45;;;;;;;;;;;8.10;99.90;;;;;;5058608;28;19919;-69
2022/02/24 04:27:10;;;;;;;;;;;8.20;99.90;;;;;;5058499;28;19908;-65
2022/02/24 04:29:37;;;;;;;;;;;8.10;99.90;;;;;;5059072;28;19912;-68
2022/02/24 04:32:04;;;;;;;;;;;8.20;99.90;;;;;;5058793;28;19909;-66
2022/02/24 04:34:29;;;;;;;;;;;8.20;99.90;;;;;;5040956;28;19911;-67
2022/02/24 04:36:55;;;;;;;;;;;8.20;99.90;;;;;;5056679;28;19905;-66
2022/02/24 04:39:20;;;;;;;;;;;8.30;99.90;;;;;;5037920;28;19999;-66
2022/02/24 04:41:46;;;;;;;;;;;8.30;99.90;;;;;;5055442;28;19948;-66
2022/02/24 04:44:11;;;;;;;;;;;8.20;99.90;;;;;;5055096;28;19908;-67
2022/02/24 04:46:37;;;;;;;;;;;8.20;99.90;;;;;;5037758;28;19908;-66
2022/02/24 04:49:03;;;;;;;;;;;8.20;99.90;;;;;;5037069;28;19995;-66
2022/02/24 04:51:28;;;;;;;;;;;8.10;99.90;;;;;;5037465;28;20419;-65
2022/02/24 04:53:56;;;;;;;;;;;8.10;99.90;;;;;;5055442;28;20343;-65
2022/02/24 04:56:21;;;;;;;;;;;8.00;99.90;;;;;;5055571;28;19939;-65
2022/02/24 04:58:47;;;;;;;;;;;8.10;99.90;;;;;;5055114;28;19905;-64
2022/02/24 05:01:12;;;;;;;;;;;8.10;99.90;;;;;;5037242;28;20354;-66
2022/02/24 05:03:38;;;;;;;;;;;8.10;99.90;;;;;;5057073;28;20282;-66
2022/02/24 05:06:05;;;;;;;;;;;8.10;99.90;;;;;;5038979;28;19913;-64
2022/02/24 05:08:30;;;;;;;;;;;8.20;99.90;;;;;;5057239;28;19905;-65
2022/02/24 05:10:56;;;;;;;;;;;8.10;99.90;;;;;;5038668;28;20397;-66
2022/02/24 05:13:21;;;;;;;;;;;8.10;99.90;;;;;;5056813;28;19912;-65
2022/02/24 05:15:49;;;;;;;;;;;8.10;99.90;;;;;;5055333;28;19916;-65
2022/02/24 05:18:14;;;;;;;;;;;8.20;99.90;;;;;;5054494;28;19920;-66
2022/02/24 05:20:40;;;;;;;;;;;8.20;99.90;;;;;;5054677;28;19912;-66
2022/02/24 05:23:05;;;;;;;;;;;8.20;99.90;;;;;;5054686;28;20365;-64
2022/02/24 05:25:34;;;;;;;;;;;8.20;99.90;;;;;;5054899;28;19955;-65
2022/02/24 05:28:11;;;;;;;;;;;8.20;99.90;;;;;;5036849;28;20007;-65
2022/02/24 05:30:37;;;;;;;;;;;8.00;99.90;;;;;;5038423;28;19904;-65
2022/02/24 05:33:03;;;;;;;;;;;8.00;99.90;;;;;;5036679;28;20266;-65
2022/02/24 05:35:29;;;;;;;;;;;8.10;99.90;;;;;;5055059;28;19905;-64
2022/02/24 05:37:54;;;;;;;;;;;8.00;99.90;;;;;;5036788;28;19912;-65
2022/02/24 05:40:20;;;;;;;;;;;8.00;99.90;;;;;;5035985;28;20278;-65
2022/02/24 05:42:46;;;;;;;;;;;8.00;99.90;;;;;;5054894;28;19990;-64
2022/02/24 05:45:12;;;;;;;;;;;8.00;99.90;;;;;;5055240;28;20011;-63
2022/02/24 05:47:37;;;;;;;;;;;8.00;99.90;;;;;;5055107;28;19970;-65
2022/02/24 05:50:07;;;;;;;;;;;7.90;99.90;;;;;;5053721;28;19912;-64
2022/02/24 05:52:36;;;;;;;;;;;7.90;99.90;;;;;;5036054;28;19904;-65
2022/02/24 05:55:03;;;;;;;;;;;8.00;99.90;;;;;;5035238;28;19951;-64
2022/02/24 05:57:29;;;;;;;;;;;8.10;99.90;;;;;;5036266;28;20276;-67
2022/02/24 05:59:54;;;;;;;;;;;8.00;99.90;;;;;;5053984;28;20372;-65
2022/02/24 06:02:20;;;;;;;;;;;8.10;99.90;;;;;;5035940;28;19904;-65
2022/02/24 06:04:45;;;;;;;;;;;8.10;99.90;;;;;;5054211;28;19951;-65
2022/02/24 06:07:11;;;;;;;;;;;8.00;99.90;;;;;;5053206;28;20003;-65
2022/02/24 06:09:38;;;;;;;;;;;8.00;99.90;;;;;;5053758;28;19905;-64
2022/02/24 06:12:03;;;;;;;;;;;8.00;99.90;;;;;;5052995;28;19919;-64
2022/02/24 06:14:29;;;;;;;;;;;8.00;99.90;;;;;;5035744;28;19905;-64
2022/02/24 06:16:54;;;;;;;;;;;8.10;99.90;;;;;;5053693;28;19905;-63
2022/02/24 06:19:20;;;;;;;;;;;8.10;99.90;;;;;;5053548;28;19921;-64
2022/02/24 06:21:48;;;;;;;;;;;8.20;99.90;;;;;;5055419;28;19947;-70
2022/02/24 06:24:13;;;;;;;;;;;8.20;99.90;;;;;;5053628;28;19944;-69
2022/02/24 06:26:39;;;;;;;;;;;8.20;99.90;;;;;;5054748;28;19909;-65
2022/02/24 06:29:04;;;;;;;;;;;8.20;99.90;;;;;;5035614;28;20296;-65
2022/02/24 06:31:34;;;;;;;;;;;8.10;99.90;;;;;;5054184;28;19905;-65
2022/02/24 06:34:01;;;;;;;;;;;8.30;99.90;;;;;;5053695;28;19906;-67
2022/02/24 06:36:26;;;;;;;;;;;8.30;99.90;;;;;;5050618;28;19931;-70
2022/02/24 06:38:52;;;;;;;;;;;8.20;99.90;;;;;;5025400;28;19905;-66
2022/02/24 06:41:20;;;;;;;;;;;8.20;99.90;;;;;;5054012;28;20000;-67
2022/02/24 06:43:45;;;;;;;;;;;8.20;99.90;;;;;;5035660;28;19916;-68
2022/02/24 06:46:13;;;;;;;;;;;8.20;99.90;;;;;;5054226;28;20381;-67
2022/02/24 06:48:39;;;;;;;;;;;8.10;99.90;;;;;;5037862;28;20000;-67
2022/02/24 06:51:05;;;;;;;;;;;8.20;99.90;;;;;;5035445;28;19904;-66
2022/02/24 06:53:30;;;;;;;;;;;8.20;99.90;;;;;;5053506;28;19991;-65
2022/02/24 06:55:56;;;;;;;;;;;8.20;99.90;;;;;;5053970;28;19904;-67
2022/02/24 06:58:21;;;;;;;;;;;8.10;99.90;;;;;;5053050;28;20010;-65
2022/02/24 07:00:47;;;;;;;;;;;8.20;99.90;;;;;;5037458;28;19924;-66
2022/02/24 07:03:12;;;;;;;;;;;8.20;99.90;;;;;;5055017;28;19912;-65
2022/02/24 07:05:37;;;;;;;;;;;8.30;99.90;;;;;;5046699;28;19919;-67
2022/02/24 07:08:03;;;;;;;;;;;8.40;99.90;;;;;;5053699;28;20306;-67
2022/02/24 07:10:29;;;;;;;;;;;8.30;99.90;;;;;;5036994;28;19905;-71
2022/02/24 07:12:55;;;;;;;;;;;8.20;99.90;;;;;;5036050;28;19966;-70
2022/02/24 07:15:21;;;;;;;;;;;8.30;99.90;;;;;;5034176;28;19905;-67
2022/02/24 07:17:46;;;;;;;;;;;8.30;99.90;;;;;;5047329;28;19925;-72
2022/02/24 07:20:13;;;;;;;;;;;8.30;99.90;;;;;;5047059;28;19992;-66
2022/02/24 07:22:39;;;;;;;;;;;8.30;99.90;;;;;;5037083;28;19909;-66
2022/02/24 07:25:05;;;;;;;;;;;8.40;99.90;;;;;;5033739;28;20276;-68
2022/02/24 07:27:31;;;;;;;;;;;8.40;99.90;;;;;;5050671;28;20526;-66
2022/02/24 07:29:56;;;;;;;;;;;8.40;99.90;;;;;;5023656;28;19911;-66
2022/02/24 07:32:22;;;;;;;;;;;8.60;99.90;;;;;;5023836;28;20021;-66
2022/02/24 07:34:47;;;;;;;;;;;8.60;99.90;;;;;;5045429;28;19909;-66
2022/02/24 07:37:13;;;;;;;;;;;8.60;99.90;;;;;;5022420;28;19908;-69
2022/02/24 07:39:38;;;;;;;;;;;8.60;99.90;;;;;;5027372;28;19905;-68
2022/02/24 07:42:04;;;;;;;;;;;8.60;99.90;;;;;;5024780;28;19913;-73
2022/02/24 07:44:31;;;;;;;;;;;8.70;99.90;;;;;;5033042;28;19908;-66
2022/02/24 07:46:58;;;;;;;;;;;8.80;99.90;;;;;;5029180;28;19921;-65
2022/02/24 07:49:24;;;;;;;;;;;8.70;99.90;;;;;;5047551;28;20230;-66
2022/02/24 07:51:51;;;;;;;;;;;8.60;99.90;;;;;;5030377;28;19911;-65
2022/02/24 07:54:18;;;;;;;;;;;8.60;99.90;;;;;;5029270;28;19952;-66
2022/02/24 07:56:44;;;;;;;;;;;8.70;99.90;;;;;;5029891;28;19908;-64
2022/02/24 07:59:09;;;;;;;;;;;8.70;99.90;;;;;;5043923;28;20328;-66
2022/02/24 08:01:35;;;;;;;;;;;8.70;99.90;;;;;;5053308;28;19913;-65
2022/02/24 08:04:00;;;;;;;;;;;8.70;99.90;;;;;;5037993;28;19914;-66
2022/02/24 08:06:26;;;;;;;;;;;8.80;99.90;;;;;;5056145;28;19919;-66
2022/02/24 08:08:52;;;;;;;;;;;8.60;99.90;;;;;;5056168;28;19905;-65
2022/02/24 08:11:17;;;;;;;;;;;9.50;99.90;;;;;;5037733;28;19935;-65
2022/02/24 08:13:43;;;;;;;;;;;9.90;99.90;;;;;;5056267;28;20078;-67
2022/02/24 08:16:09;;;;;;;;;;;9.60;99.90;;;;;;5056124;28;20000;-69
2022/02/24 08:18:34;;;;;;;;;;;9.30;99.90;;;;;;5021713;28;19971;-67
2022/02/24 08:21:00;;;;;;;;;;;9.00;99.90;;;;;;5016778;28;20335;-68
2022/02/24 08:23:25;;;;;;;;;;;8.90;99.90;;;;;;5016285;28;19905;-65
2022/02/24 08:25:52;;;;;;;;;;;8.90;99.90;;;;;;4995975;28;20008;-65
2022/02/24 08:28:17;;;;;;;;;;;8.90;99.90;;;;;;5009925;28;19996;-66
2022/02/24 08:30:43;;;;;;;;;;;8.90;99.90;;;;;;5005143;28;19960;-68
2022/02/24 08:33:09;;;;;;;;;;;9.40;99.90;;;;;;5018120;28;19905;-67
2022/02/24 08:35:34;;;;;;;;;;;10.40;99.90;;;;;;5015709;28;19905;-67
2022/02/24 08:38:00;;;;;;;;;;;10.10;99.90;;;;;;5014762;28;19909;-69
2022/02/24 08:40:26;;;;;;;;;;;10.20;99.90;;;;;;4998961;28;20359;-65
2022/02/24 08:42:52;;;;;;;;;;;9.60;99.90;;;;;;4999946;28;19968;-66
2022/02/24 08:45:18;;;;;;;;;;;9.40;99.90;;;;;;5003834;28;20000;-64
2022/02/24 08:47:44;;;;;;;;;;;9.20;99.90;;;;;;5005709;28;19943;-75
2022/02/24 08:50:10;;;;;;;;;;;9.10;99.90;;;;;;5014781;28;20383;-66
2022/02/24 08:52:36;;;;;;;;;;;9.00;99.90;;;;;;5017922;28;19909;-66
2022/02/24 08:55:01;;;;;;;;;;;8.90;99.90;;;;;;5018676;28;19905;-65
2022/02/24 08:57:27;;;;;;;;;;;9.00;99.90;;;;;;5017128;28;19905;-65
2022/02/24 08:59:52;;;;;;;;;;;9.10;99.90;;;;;;5036808;28;19908;-67
2022/02/24 09:02:18;;;;;;;;;;;9.10;99.90;;;;;;5035009;28;20363;-65
2022/02/24 09:04:44;;;;;;;;;;;9.20;99.90;;;;;;5034318;28;20379;-65
2022/02/24 09:07:09;;;;;;;;;;;9.20;99.90;;;;;;5023869;28;20037;-73
2022/02/24 09:09:35;;;;;;;;;;;9.20;99.90;;;;;;4999179;28;20371;-68
2022/02/24 09:12:01;;;;;;;;;;;9.30;99.90;;;;;;5015096;28;19944;-65
2022/02/24 09:14:27;;;;;;;;;;;9.30;99.90;;;;;;5015956;28;20279;-63
2022/02/24 09:16:53;;;;;;;;;;;9.30;99.90;;;;;;5017457;28;20389;-64
2022/02/24 09:19:18;;;;;;;;;;;9.10;99.90;;;;;;5032019;28;19917;-64
2022/02/24 09:21:44;;;;;;;;;;;9.00;99.90;;;;;;5032001;28;19959;-65
2022/02/24 09:24:10;;;;;;;;;;;9.00;99.90;;;;;;5030624;28;19916;-64
2022/02/24 09:26:36;;;;;;;;;;;9.10;99.90;;;;;;5020954;28;20263;-65
2022/02/24 09:29:02;;;;;;;;;;;9.20;99.90;;;;;;4996839;28;19905;-65
2022/02/24 09:31:28;;;;;;;;;;;9.40;99.90;;;;;;4999767;28;19906;-63
2022/02/24 09:33:53;;;;;;;;;;;9.30;99.90;;;;;;4995053;28;19932;-63
2022/02/24 09:36:19;;;;;;;;;;;9.30;99.90;;;;;;4999705;28;19937;-63
2022/02/24 09:38:45;;;;;;;;;;;9.40;99.90;;;;;;5015567;28;20379;-62
2022/02/24 09:41:11;;;;;;;;;;;9.40;99.90;;;;;;5008040;28;19928;-67
2022/02/24 09:43:37;;;;;;;;;;;9.50;99.90;;;;;;5001559;28;19914;-63
2022/02/24 09:46:04;;;;;;;;;;;9.50;99.90;;;;;;5004205;28;19960;-64
2022/02/24 09:48:33;;;;;;;;;;;9.60;99.90;;;;;;5012008;28;19905;-63
2022/02/24 09:51:00;;;;;;;;;;;9.60;99.90;;;;;;5014220;28;19909;-63
2022/02/24 09:53:34;;;;;;;;;;;9.60;99.90;;;;;;5025700;28;19948;-63
2022/02/24 09:56:00;;;;;;;;;;;9.80;99.90;;;;;;5011539;28;19948;-64
2022/02/24 09:58:26;;;;;;;;;;;9.90;99.90;;;;;;5006226;28;20011;-64
2022/02/24 10:00:52;;;;;;;;;;;9.80;99.90;;;;;;5008071;28;19949;-62
2022/02/24 10:03:35;;;;;;;;;;;9.90;99.90;;;;;;5009736;28;20347;-67
2022/02/24 10:06:01;;;;;;;;;;;10.00;99.90;;;;;;5014178;28;19920;-63
2022/02/24 10:08:28;;;;;;;;;;;9.90;99.90;;;;;;5014176;28;19912;-65
2022/02/24 10:10:54;;;;;;;;;;;10.10;99.90;;;;;;5015376;28;19960;-64
2022/02/24 10:13:20;;;;;;;;;;;10.10;99.90;;;;;;5014777;28;20378;-67
2022/02/24 10:15:52;;;;;;;;;;;10.20;99.90;;;;;;5014433;28;19929;-66
2022/02/24 10:18:18;;;;;;;;;;;10.20;99.90;;;;;;5014560;28;19952;-66
2022/02/24 10:21:07;;;;;;;;;;;10.20;99.90;;;;;;5009944;28;20000;-67
2022/02/24 10:23:34;;;;;;;;;;;10.30;99.90;;;;;;4975572;28;19913;-69
2022/02/24 10:26:01;;;;;;;;;;;10.10;99.90;;;;;;4959096;28;19910;-65
2022/02/24 10:28:34;;;;;;;;;;;10.20;99.90;;;;;;4956742;28;19966;-64
2022/02/24 10:31:10;;;;;;;;;;;10.30;99.90;;;;;;4954543;29;19958;-65
2022/02/24 10:33:36;;;;;;;;;;;10.40;99.90;;;;;;4950930;29;20447;-69
2022/02/24 10:36:15;;;;;;;;;;;10.40;99.90;;;;;;4954787;28;19907;-67
2022/02/24 10:39:00;;;;;;;;;;;10.60;99.90;;;;;;4956551;28;19938;-64
2022/02/24 10:41:26;;;;;;;;;;;10.80;99.90;;;;;;4973570;28;19906;-68
2022/02/24 10:43:52;;;;;;;;;;;10.80;99.90;;;;;;4958495;28;19914;-68
2022/02/24 10:46:20;;;;;;;;;;;10.70;99.90;;;;;;4974504;28;19914;-67
2022/02/24 10:48:48;;;;;;;;;;;10.80;99.90;;;;;;4977840;28;19906;-65
2022/02/24 10:51:19;;;;;;;;;;;10.70;99.90;;;;;;4974248;28;19910;-64
2022/02/24 10:53:44;;;;;;;;;;;10.70;99.90;;;;;;4957362;28;19917;-65
2022/02/24 10:56:10;;;;;;;;;;;10.60;99.90;;;;;;4972928;28;19906;-64
2022/02/24 10:58:38;;;;;;;;;;;10.90;99.90;;;;;;4956041;28;19917;-64
2022/02/24 11:01:10;;;;;;;;;;;11.00;99.90;;;;;;4988277;28;19910;-65
2022/02/24 11:03:37;;;;;;;;;;;11.00;99.90;;;;;;4992858;28;20008;-65
2022/02/24 11:06:04;;;;;;;;;;;11.20;99.90;;;;;;4993119;28;20278;-65
2022/02/24 11:08:31;;;;;;;;;;;11.20;99.90;;;;;;4993014;28;20267;-71
2022/02/24 11:10:56;;;;;;;;;;;11.30;99.90;;;;;;4993502;28;19906;-65
2022/02/24 11:13:23;;;;;;;;;;;11.30;99.90;;;;;;4993300;28;19910;-65
2022/02/24 11:15:48;;;;;;;;;;;11.50;99.90;;;;;;4994626;28;19921;-68
2022/02/24 11:18:15;;;;;;;;;;;11.60;99.90;;;;;;5007095;28;20270;-66
2022/02/24 11:20:41;;;;;;;;;;;11.50;99.90;;;;;;5031102;28;20373;-64
2022/02/24 11:23:07;;;;;;;;;;;11.60;99.90;;;;;;5020776;28;19909;-65
2022/02/24 11:25:36;;;;;;;;;;;11.60;99.90;;;;;;5037082;28;19909;-64
2022/02/24 11:28:02;;;;;;;;;;;11.50;99.90;;;;;;5019660;28;20412;-65
2022/02/24 11:30:29;;;;;;;;;;;11.50;99.90;;;;;;5019404;28;19905;-64
2022/02/24 11:32:55;;;;;;;;;;;11.60;99.90;;;;;;5019991;28;19952;-66
2022/02/24 11:35:22;;;;;;;;;;;11.50;99.90;;;;;;5018553;28;19944;-65
2022/02/24 11:37:50;;;;;;;;;;;11.60;99.90;;;;;;5037097;28;19958;-68
2022/02/24 11:40:21;;;;;;;;;;;11.60;99.90;;;;;;5037207;28;19905;-65
2022/02/24 11:43:07;;;;;;;;;;;11.50;99.90;;;;;;5036714;28;19909;-65
2022/02/24 11:45:38;;;;;;;;;;;11.40;99.90;;;;;;5018929;28;20410;-65
2022/02/24 11:48:05;;;;;;;;;;;11.50;99.90;;;;;;5019885;28;19924;-64
2022/02/24 11:50:32;;;;;;;;;;;11.50;99.90;;;;;;5036887;28;19909;-65
2022/02/24 11:52:58;;;;;;;;;;;11.50;99.90;;;;;;5036855;28;19988;-65
2022/02/24 11:55:43;;;;;;;;;;;11.50;99.90;;;;;;5018869;28;19970;-64
2022/02/24 11:58:27;;;;;;;;;;;11.60;99.90;;;;;;5019160;28;20270;-67
2022/02/24 12:01:12;;;;;;;;;;;11.60;99.90;;;;;;5019529;28;19926;-65
2022/02/24 12:03:43;;;;;;;;;;;11.70;99.90;;;;;;5036203;28;19996;-66
2022/02/24 12:06:09;;;;;;;;;;;11.90;99.90;;;;;;5019067;28;20369;-65
2022/02/24 12:08:55;;;;;;;;;;;12.00;99.90;;;;;;5018464;28;19905;-70
2022/02/24 12:11:28;;;;;;;;;;;12.00;99.90;;;;;;5007970;28;19912;-65
2022/02/24 12:13:53;;;;;;;;;;;12.10;99.90;;;;;;5018906;28;19913;-67
2022/02/24 12:16:22;;;;;;;;;;;12.00;99.90;;;;;;5036531;28;19905;-66
2022/02/24 12:18:48;;;;;;;;;;;12.20;99.90;;;;;;5036814;28;19916;-64
2022/02/24 12:21:34;;;;;;;;;;;12.30;99.90;;;;;;5018162;28;19970;-66
2022/02/24 12:24:03;;;;;;;;;;;12.40;99.90;;;;;;5036664;28;19909;-65
2022/02/24 12:26:45;;;;;;;;;;;12.40;99.90;;;;;;5037188;28;19916;-65
2022/02/24 12:29:25;;;;;;;;;;;12.40;99.90;;;;;;5036578;28;19905;-66
2022/02/24 12:31:54;;;;;;;;;;;12.50;99.90;;;;;;5019070;28;20337;-64
2022/02/24 12:34:20;;;;;;;;;;;12.40;99.90;;;;;;5036098;28;19905;-66
2022/02/24 12:36:45;;;;;;;;;;;12.40;99.90;;;;;;5036111;28;19916;-66
2022/02/24 12:39:11;;;;;;;;;;;12.40;99.90;;;;;;5035847;28;19905;-64
2022/02/24 12:41:37;;;;;;;;;;;12.40;99.90;;;;;;5036729;28;19959;-70
2022/02/24 12:44:20;;;;;;;;;;;12.40;99.90;;;;;;5056538;28;20011;-65
2022/02/24 12:46:46;;;;;;;;;;;12.30;99.90;;;;;;5055870;28;20346;-68
2022/02/24 12:49:11;;;;;;;;;;;12.20;99.90;;;;;;5038240;28;19912;-64
2022/02/24 12:51:37;;;;;;;;;;;12.20;99.90;;;;;;5038054;28;20312;-67
2022/02/24 12:54:02;;;;;;;;;;;12.20;99.90;;;;;;5023386;28;20255;-66
2022/02/24 12:56:35;;;;;;;;;;;12.30;99.90;;;;;;5026856;28;20007;-68
2022/02/24 12:59:01;;;;;;;;;;;12.30;99.90;;;;;;5035340;28;19915;-66
2022/02/24 13:01:27;;;;;;;;;;;12.30;99.90;;;;;;5047403;28;19944;-68
2022/02/24 13:03:55;;;;;;;;;;;12.30;99.90;;;;;;5039438;28;19912;-67
2022/02/24 13:06:20;;;;;;;;;;;12.20;99.90;;;;;;5038504;28;20324;-67
2022/02/24 13:11:31;;;;;;;;;;;12.20;99.90;;;;;;5034973;28;19993;-64
2022/02/24 13:14:00;;;;;;;;;;;12.20;99.90;;;;;;5037285;28;19940;-68
2022/02/24 13:16:26;;;;;;;;;;;12.30;99.90;;;;;;5029435;28;20334;-66
2022/02/24 13:18:53;;;;;;;;;;;12.30;99.90;;;;;;5047694;28;20047;-64
2022/02/24 13:21:22;;;;;;;;;;;12.20;99.90;;;;;;5041550;28;20010;-64
2022/02/24 13:23:47;;;;;;;;;;;12.30;99.90;;;;;;5023905;28;20362;-65
2022/02/24 13:26:13;;;;;;;;;;;12.30;99.90;;;;;;5035079;28;19909;-64
2022/02/24 13:28:40;;;;;;;;;;;12.20;99.90;;;;;;5045848;28;20354;-64
2022/02/24 13:31:07;;;;;;;;;;;12.20;99.90;;;;;;5037354;28;19928;-65
2022/02/24 13:33:37;;;;;;;;;;;12.20;99.90;;;;;;5037139;28;19955;-65
2022/02/24 13:36:05;;;;;;;;;;;12.10;99.90;;;;;;5054709;28;20281;-66
2022/02/24 13:38:32;;;;;;;;;;;12.10;99.90;;;;;;5037145;28;19904;-66
2022/02/24 13:41:01;;;;;;;;;;;12.00;99.90;;;;;;5031654;28;19905;-65
2022/02/24 13:43:27;;;;;;;;;;;12.00;99.90;;;;;;5031600;28;19920;-77
2022/02/24 13:45:56;;;;;;;;;;;11.90;99.90;;;;;;5040621;28;19913;-64
2022/02/24 13:48:25;;;;;;;;;;;11.90;99.90;;;;;;5035196;28;19936;-63
2022/02/24 13:50:51;;;;;;;;;;;12.00;99.90;;;;;;5017007;28;20412;-66
2022/02/24 13:53:24;;;;;;;;;;;12.00;99.90;;;;;;5042145;28;19908;-67
2022/02/24 13:55:52;;;;;;;;;;;12.00;99.90;;;;;;5054560;28;19905;-66
2022/02/24 13:58:22;;;;;;;;;;;13.40;99.90;;;;;;5036680;28;20411;-66
2022/02/24 14:00:52;;;;;;;;;;;13.20;99.90;;;;;;5042533;28;20152;-66
2022/02/24 14:03:20;;;;;;;;;;;12.50;99.90;;;;;;5055536;28;19912;-65
2022/02/24 14:05:45;;;;;;;;;;;12.20;99.90;;;;;;5033001;28;19980;-65
2022/02/24 14:08:12;;;;;;;;;;;11.90;99.90;;;;;;5045773;28;19912;-66
2022/02/24 14:10:38;;;;;;;;;;;11.70;99.90;;;;;;5044029;28;19905;-64
2022/02/24 14:13:04;;;;;;;;;;;11.70;99.90;;;;;;5019415;28;19913;-65
2022/02/24 14:15:30;;;;;;;;;;;11.60;99.90;;;;;;5054218;28;19996;-68
2022/02/24 14:17:55;;;;;;;;;;;11.70;99.90;;;;;;5038137;28;19955;-66
2022/02/24 14:20:24;;;;;;;;;;;11.70;99.90;;;;;;5056266;28;19917;-70
2022/02/24 14:22:50;;;;;;;;;;;11.70;99.90;;;;;;5037632;28;19971;-65
2022/02/24 14:25:16;;;;;;;;;;;11.60;99.90;;;;;;5037353;28;19912;-67
2022/02/24 14:27:41;;;;;;;;;;;11.60;99.90;;;;;;5054222;28;19915;-67
2022/02/24 14:30:08;;;;;;;;;;;11.60;99.90;;;;;;5037508;28;19928;-66